createdAt,value
2022-12-08T05:02:33.490Z,4.22
2022-12-08T05:05:00.213Z,3.30
2022-12-08T05:07:26.741Z,4.43
2022-12-08T05:09:53.994Z,5.45
2022-12-08T05:12:20.815Z,5.93
2022-12-08T05:14:48.522Z,4.28
2022-12-08T05:17:19.097Z,3.60
2022-12-08T05:19:46.088Z,4.28
2022-12-08T05:22:13.061Z,2.10
2022-12-08T05:24:45.583Z,2.28
2022-12-08T05:27:14.587Z,3.03
2022-12-08T05:29:41.318Z,1.10
2022-12-08T05:32:09.327Z,1.55
2022-12-08T05:34:36.403Z,1.50
2022-12-08T05:37:03.853Z,1.90
2022-12-08T05:39:32.085Z,1.30
2022-12-08T05:41:59.814Z,3.37
2022-12-08T05:44:26.872Z,2.08
2022-12-08T05:46:53.870Z,2.58
2022-12-08T05:49:21.130Z,2.08
2022-12-08T05:51:48.912Z,2.30
2022-12-08T05:54:15.740Z,2.03
2022-12-08T05:56:42.349Z,2.65
2022-12-08T05:59:09.707Z,2.25
2022-12-08T06:01:37.054Z,2.45
2022-12-08T06:04:04.623Z,2.92
2022-12-08T06:06:34.415Z,3.00
2022-12-08T06:09:06.416Z,2.97
2022-12-08T06:11:33.770Z,3.22
2022-12-08T06:14:01.062Z,4.88
2022-12-08T06:16:29.162Z,3.45
2022-12-08T06:18:56.621Z,5.47
2022-12-08T06:21:23.875Z,4.03
2022-12-08T06:23:53.024Z,3.55
2022-12-08T06:26:20.861Z,4.00
2022-12-08T06:28:47.859Z,4.93
2022-12-08T06:31:28.429Z,3.10
2022-12-08T06:33:55.869Z,5.15
2022-12-08T06:36:26.007Z,6.38
2022-12-08T06:38:52.855Z,6.32
2022-12-08T06:41:20.132Z,5.30
2022-12-08T06:43:46.717Z,3.10
2022-12-08T06:46:19.098Z,2.47
2022-12-08T06:48:46.115Z,3.10
2022-12-08T06:51:15.974Z,3.13
2022-12-08T06:53:43.581Z,6.05
2022-12-08T06:56:11.822Z,2.93
2022-12-08T06:58:39.175Z,3.60
2022-12-08T07:01:13.473Z,3.30
2022-12-08T07:03:41.120Z,6.80
2022-12-08T07:06:09.319Z,3.28
2022-12-08T07:08:36.040Z,2.47
2022-12-08T07:11:16.696Z,3.97
2022-12-08T07:13:48.014Z,2.17
2022-12-08T07:16:14.743Z,2.55
2022-12-08T07:18:43.361Z,2.35
2022-12-08T07:21:12.504Z,1.30
2022-12-08T07:23:39.366Z,1.38
2022-12-08T07:26:08.490Z,1.02
2022-12-08T07:28:37.462Z,3.13
2022-12-08T07:31:05.244Z,2.47
2022-12-08T07:33:33.093Z,2.50
2022-12-08T07:36:04.805Z,4.28
2022-12-08T07:38:34.969Z,2.33
2022-12-08T07:41:02.351Z,3.15
2022-12-08T07:43:29.850Z,2.75
2022-12-08T07:45:56.653Z,2.60
2022-12-08T07:48:23.708Z,3.67
2022-12-08T07:50:50.482Z,4.25
2022-12-08T07:53:17.339Z,3.20
2022-12-08T07:55:44.647Z,4.00
2022-12-08T07:58:11.639Z,2.77
2022-12-08T08:00:38.727Z,4.68
2022-12-08T08:03:06.442Z,3.67
2022-12-08T08:05:33.642Z,3.35
2022-12-08T08:08:00.377Z,4.57
2022-12-08T08:10:27.640Z,4.90
2022-12-08T08:12:59.197Z,4.05
2022-12-08T08:15:26.634Z,3.75
2022-12-08T08:17:53.769Z,4.28
2022-12-08T08:20:21.561Z,3.92
2022-12-08T08:22:50.532Z,4.00
2022-12-08T08:25:18.203Z,4.93
2022-12-08T08:27:45.566Z,5.38
2022-12-08T08:30:18.347Z,5.05
2022-12-08T08:32:48.025Z,6.32
2022-12-08T08:35:14.854Z,4.83
2022-12-08T08:37:45.730Z,7.18
2022-12-08T08:40:15.326Z,8.02
2022-12-08T08:42:41.880Z,5.30
2022-12-08T08:45:09.051Z,6.88
2022-12-08T08:47:35.969Z,6.83
2022-12-08T08:50:03.251Z,8.63
2022-12-08T08:52:30.401Z,7.68
2022-12-08T08:54:57.156Z,5.70
2022-12-08T08:57:25.950Z,5.53
2022-12-08T08:59:53.771Z,7.90
2022-12-08T09:02:21.484Z,5.90
2022-12-08T09:04:48.280Z,6.07
2022-12-08T09:07:15.828Z,7.15
2022-12-08T09:09:42.520Z,6.97
2022-12-08T09:12:10.151Z,7.23
2022-12-08T09:14:36.996Z,6.68
2022-12-08T09:17:04.043Z,9.45
2022-12-08T09:19:30.739Z,6.53
2022-12-08T09:21:57.600Z,7.43
2022-12-08T09:24:24.598Z,4.00
2022-12-08T09:26:51.662Z,4.65
2022-12-08T09:29:18.491Z,5.88
2022-12-08T09:31:45.437Z,4.60
2022-12-08T09:34:12.724Z,6.30
2022-12-08T09:36:40.096Z,4.67
2022-12-08T09:39:07.428Z,5.22
2022-12-08T09:41:51.894Z,4.45
2022-12-08T09:44:38.923Z,4.60
2022-12-08T09:47:16.174Z,5.55
2022-12-08T09:49:47.926Z,4.83
2022-12-08T09:52:45.995Z,7.28
2022-12-08T09:55:21.041Z,4.15
2022-12-08T09:57:57.826Z,6.05
2022-12-08T10:00:24.954Z,6.78
2022-12-08T10:02:52.008Z,6.67
2022-12-08T10:05:18.809Z,6.90
2022-12-08T10:07:54.657Z,7.13
2022-12-08T10:10:46.868Z,7.47
2022-12-08T10:13:23.647Z,7.38
2022-12-08T10:16:01.306Z,8.03
2022-12-08T10:18:31.653Z,6.85
2022-12-08T10:21:14.426Z,6.38
2022-12-08T10:23:45.169Z,6.15
2022-12-08T10:26:15.075Z,6.10
2022-12-08T10:28:45.791Z,6.27
2022-12-08T10:31:21.812Z,6.70
2022-12-08T10:33:55.396Z,6.00
2022-12-08T10:36:22.328Z,6.15
2022-12-08T10:38:48.921Z,5.05
2022-12-08T10:41:19.979Z,2.80
2022-12-08T10:43:53.390Z,3.30
2022-12-08T10:46:26.024Z,3.20
2022-12-08T10:48:54.303Z,3.63
2022-12-08T10:51:42.107Z,2.65
2022-12-08T10:54:29.279Z,3.13
2022-12-08T10:56:58.153Z,4.25
2022-12-08T10:59:28.014Z,2.83
2022-12-08T11:01:56.826Z,2.45
2022-12-08T11:04:31.486Z,3.08
2022-12-08T11:06:58.496Z,2.83
2022-12-08T11:09:48.980Z,1.80
2022-12-08T11:12:16.558Z,2.08
2022-12-08T11:14:43.747Z,2.75
2022-12-08T11:17:27.961Z,4.75
2022-12-08T11:20:02.435Z,5.27
2022-12-08T11:22:29.522Z,3.45
2022-12-08T11:25:00.900Z,4.30
2022-12-08T11:27:27.673Z,4.15
2022-12-08T11:29:54.333Z,4.03
2022-12-08T11:32:22.453Z,3.33
2022-12-08T11:34:58.100Z,3.65
2022-12-08T11:38:08.118Z,4.00
2022-12-08T11:40:45.021Z,3.95
2022-12-08T11:43:26.573Z,4.60
2022-12-08T11:46:00.385Z,4.07
2022-12-08T11:48:45.941Z,9.23
2022-12-08T11:51:19.919Z,6.88
2022-12-08T11:53:49.698Z,4.75
2022-12-08T11:56:25.690Z,5.93
2022-12-08T11:58:57.948Z,4.20
2022-12-08T12:01:26.958Z,3.70
2022-12-08T12:04:18.405Z,3.60
2022-12-08T12:07:06.204Z,6.50
2022-12-08T12:09:50.746Z,5.80
2022-12-08T12:12:25.327Z,10.10
2022-12-08T12:15:13.809Z,4.40
2022-12-08T12:18:04.065Z,3.78
2022-12-08T12:20:39.858Z,4.30
2022-12-08T12:23:21.184Z,5.05
2022-12-08T12:26:01.023Z,5.33
2022-12-08T12:28:41.104Z,4.90
2022-12-08T12:31:12.607Z,4.13
2022-12-08T12:33:39.582Z,3.10
2022-12-08T12:36:09.809Z,5.75
2022-12-08T12:39:03.598Z,4.73
2022-12-08T12:41:43.223Z,7.82
2022-12-08T12:44:24.812Z,5.53
2022-12-08T12:46:51.829Z,4.40
2022-12-08T12:49:40.736Z,5.28
2022-12-08T12:52:11.982Z,6.70
2022-12-08T12:54:43.198Z,8.02
2022-12-08T12:57:10.112Z,4.22
2022-12-08T12:59:56.012Z,4.38
2022-12-08T13:02:36.314Z,17.05
2022-12-08T13:05:11.555Z,7.10
2022-12-08T13:08:01.002Z,11.45
2022-12-08T13:10:34.508Z,4.95
2022-12-08T13:13:17.936Z,7.13
2022-12-08T13:16:20.258Z,6.70
2022-12-08T13:18:49.703Z,8.27
2022-12-08T13:21:21.320Z,8.35
2022-12-08T13:24:14.922Z,7.30
2022-12-08T13:27:11.219Z,6.70
2022-12-08T13:29:39.250Z,6.22
2022-12-08T13:32:09.779Z,12.67
2022-12-08T13:35:00.083Z,7.22
2022-12-08T13:37:54.615Z,6.78
2022-12-08T13:40:27.448Z,8.13
2022-12-08T13:43:18.334Z,7.80
2022-12-08T13:50:49.572Z,7.78
2022-12-08T13:56:05.408Z,6.45
2022-12-08T13:57:34.952Z,7.80
2022-12-08T14:00:08.742Z,7.17
2022-12-08T14:02:42.257Z,8.98
2022-12-08T14:05:19.407Z,9.43
2022-12-08T14:07:49.956Z,9.98
2022-12-08T14:10:22.466Z,11.50
2022-12-08T14:13:01.425Z,11.47
2022-12-08T14:15:37.163Z,11.88
2022-12-08T14:18:07.298Z,9.77
2022-12-08T14:20:57.883Z,8.90
2022-12-08T14:23:22.478Z,10.77
2022-12-08T14:25:49.469Z,9.83
2022-12-08T14:28:16.892Z,9.00
2022-12-08T14:30:43.828Z,7.20
2022-12-08T14:33:17.229Z,8.15
2022-12-08T14:35:51.237Z,6.00
2022-12-08T14:38:24.694Z,5.87
2022-12-08T14:41:04.477Z,6.80
2022-12-08T14:43:32.043Z,8.25
2022-12-08T14:46:19.884Z,7.28
2022-12-08T14:48:47.213Z,6.53
2022-12-08T14:51:19.617Z,7.27
2022-12-08T14:54:09.039Z,7.75
2022-12-08T14:56:52.339Z,8.20
2022-12-08T14:59:36.692Z,5.55
2022-12-08T15:02:14.345Z,5.40
2022-12-08T15:04:47.798Z,6.30
2022-12-08T15:07:18.444Z,6.55
2022-12-08T15:09:49.230Z,7.40
2022-12-08T15:12:26.176Z,8.90
2022-12-08T15:15:17.720Z,5.30
2022-12-08T15:18:01.032Z,5.53
2022-12-08T15:20:44.227Z,4.50
2022-12-08T15:23:38.543Z,6.75
2022-12-08T15:26:05.863Z,5.68
2022-12-08T15:28:33.017Z,5.47
2022-12-08T15:31:00.351Z,5.93
2022-12-08T15:33:27.654Z,7.30
2022-12-08T15:35:54.531Z,5.72
2022-12-08T15:38:26.763Z,7.18
2022-12-08T15:40:54.970Z,14.20
2022-12-08T15:43:22.730Z,11.83
2022-12-08T15:45:59.031Z,7.68
2022-12-08T15:48:29.641Z,17.15
2022-12-08T15:50:57.448Z,12.60
2022-12-08T15:53:24.428Z,5.53
2022-12-08T15:56:26.414Z,5.20
2022-12-08T15:58:53.426Z,7.22
2022-12-08T16:01:22.199Z,4.63
2022-12-08T16:07:19.658Z,6.43
2022-12-08T16:09:32.427Z,7.23
2022-12-08T16:12:18.341Z,7.03
2022-12-08T16:17:32.691Z,9.40
2022-12-08T16:20:00.110Z,7.20
2022-12-08T16:25:22.978Z,9.80
2022-12-08T16:28:08.262Z,8.70
2022-12-08T16:30:39.683Z,9.82
2022-12-08T16:33:06.938Z,12.93
2022-12-08T16:35:33.946Z,11.13
2022-12-08T16:38:00.993Z,11.00
2022-12-08T16:40:28.117Z,9.77
2022-12-08T16:42:55.161Z,10.63
2022-12-08T16:45:28.223Z,12.32
2022-12-08T16:47:58.164Z,14.90
2022-12-08T16:50:29.566Z,11.63
2022-12-08T16:53:04.880Z,12.15
2022-12-08T16:55:32.674Z,12.40
2022-12-08T16:58:04.468Z,14.05
2022-12-08T17:00:37.127Z,12.90
2022-12-08T17:03:05.919Z,11.52
2022-12-08T17:05:32.594Z,13.55
2022-12-08T17:08:00.102Z,12.98
2022-12-08T17:10:32.344Z,13.55
2022-12-08T17:12:59.329Z,11.07
2022-12-08T17:15:42.968Z,12.00
2022-12-08T17:18:09.944Z,14.63
2022-12-08T17:20:37.423Z,15.35
2022-12-08T17:23:09.478Z,20.33
2022-12-08T17:25:42.723Z,16.00
2022-12-08T17:28:09.947Z,16.13
2022-12-08T17:30:37.208Z,15.32
2022-12-08T17:33:04.317Z,12.60
2022-12-08T17:35:31.566Z,14.77
2022-12-08T17:37:58.167Z,17.33
2022-12-08T17:40:28.247Z,17.10
2022-12-08T17:42:55.663Z,15.82
2022-12-08T17:45:22.500Z,14.85
2022-12-08T17:47:49.443Z,24.65
2022-12-08T17:50:16.613Z,26.73
2022-12-08T17:52:43.463Z,18.80
2022-12-08T17:55:11.286Z,22.42
2022-12-08T17:57:38.116Z,51.05
2022-12-08T18:00:06.028Z,25.83
2022-12-08T18:02:33.929Z,46.87
2022-12-08T18:05:00.589Z,27.30
2022-12-08T18:07:27.394Z,52.90
2022-12-08T18:09:56.837Z,32.13
2022-12-08T18:12:24.085Z,25.92
2022-12-08T18:14:52.476Z,28.37
2022-12-08T18:17:19.454Z,28.33
2022-12-08T18:19:55.734Z,28.67
2022-12-08T18:22:22.491Z,27.05
2022-12-08T18:24:49.311Z,26.75
2022-12-08T18:27:15.955Z,27.47
2022-12-08T18:29:43.186Z,26.70
2022-12-08T18:32:09.885Z,29.73
2022-12-08T18:34:36.796Z,27.73
2022-12-08T18:37:04.081Z,26.20
2022-12-08T18:39:32.936Z,28.80
2022-12-08T18:42:02.772Z,47.30
2022-12-08T18:44:30.661Z,34.63
2022-12-08T18:46:57.327Z,33.88
2022-12-08T18:49:24.428Z,35.33
2022-12-08T18:51:51.328Z,34.80
2022-12-08T18:54:18.068Z,32.55
2022-12-08T18:56:45.078Z,29.17
2022-12-08T18:59:12.451Z,31.77
2022-12-08T19:01:40.991Z,29.83
2022-12-08T19:04:27.897Z,31.03
2022-12-08T19:06:56.642Z,30.88
2022-12-08T19:09:24.612Z,30.58
2022-12-08T19:11:51.300Z,33.38
2022-12-08T19:14:22.608Z,29.83
2022-12-08T19:16:52.491Z,28.50
2022-12-08T19:19:19.613Z,27.15
2022-12-08T19:21:46.880Z,26.67
2022-12-08T19:24:13.797Z,27.77
2022-12-08T19:26:40.945Z,27.67
2022-12-08T19:29:07.715Z,28.83
2022-12-08T19:31:34.389Z,24.70
2022-12-08T19:34:01.677Z,24.17
2022-12-08T19:36:31.802Z,25.27
2022-12-08T19:39:17.299Z,24.35
2022-12-08T19:42:03.014Z,25.03
2022-12-08T19:44:49.282Z,21.58
2022-12-08T19:47:16.217Z,22.17
2022-12-08T19:49:44.097Z,25.02
2022-12-08T19:52:11.087Z,24.92
2022-12-08T19:54:40.726Z,24.50
2022-12-08T19:57:07.362Z,25.67
2022-12-08T19:59:34.520Z,26.27
2022-12-08T20:02:01.728Z,20.55
2022-12-08T20:04:29.041Z,23.52
2022-12-08T20:06:57.729Z,23.27
2022-12-08T20:09:25.104Z,20.73
2022-12-08T20:11:54.997Z,25.15
2022-12-08T20:14:23.409Z,19.10
2022-12-08T20:16:51.234Z,21.50
2022-12-08T20:19:18.758Z,18.23
2022-12-08T20:21:45.436Z,21.27
2022-12-08T20:24:12.128Z,21.05
2022-12-08T20:26:38.934Z,18.23
2022-12-08T20:29:06.689Z,17.13
2022-12-08T20:31:34.311Z,15.83
2022-12-08T20:34:01.185Z,18.00
2022-12-08T20:36:28.872Z,20.20
2022-12-08T20:38:56.549Z,26.95
2022-12-08T20:41:23.847Z,16.20
2022-12-08T20:43:51.670Z,14.33
2022-12-08T20:46:20.094Z,16.33
2022-12-08T20:48:47.871Z,15.32
2022-12-08T20:51:20.282Z,14.00
2022-12-08T20:53:47.522Z,13.68
2022-12-08T20:56:19.425Z,14.93
2022-12-08T20:58:47.078Z,14.45
2022-12-08T21:01:16.522Z,11.80
2022-12-08T21:03:45.593Z,14.25
2022-12-08T21:06:13.067Z,14.45
2022-12-08T21:08:40.796Z,20.00
2022-12-08T21:11:08.607Z,16.20
2022-12-08T21:13:37.705Z,13.18
2022-12-08T21:16:05.505Z,14.02
2022-12-08T21:18:38.985Z,13.43
2022-12-08T21:21:12.613Z,13.80
2022-12-08T21:23:40.223Z,14.75
2022-12-08T21:26:13.429Z,16.45
2022-12-08T21:28:40.662Z,16.90
2022-12-08T21:31:09.876Z,14.75
2022-12-08T21:33:37.243Z,16.67
2022-12-08T21:36:09.057Z,17.00
2022-12-08T21:38:37.508Z,16.10
2022-12-08T21:41:06.095Z,18.17
2022-12-08T21:43:33.532Z,16.70
2022-12-08T21:46:01.417Z,17.23
2022-12-08T21:48:28.636Z,16.13
2022-12-08T21:50:57.124Z,15.65
2022-12-08T21:53:26.588Z,15.77
2022-12-08T21:55:53.515Z,15.27
2022-12-08T21:58:20.397Z,16.03
2022-12-08T22:00:47.269Z,17.98
2022-12-08T22:03:15.476Z,18.02
2022-12-08T22:05:42.832Z,18.38
2022-12-08T22:08:09.672Z,18.00
